Time;durP1;ratioP1;P1;durP2;ratioP2;P2;SDS_P1;SDS_P2;PMS_P1;PMS_P2;Temp;Humidity;BMP_temperature;BMP_pressure;BME280_temperature;BME280_humidity;BME280_pressure;Samples;Min_cycle;Max_cycle;Signal;HPM_P1;HPM_P2
2021/05/06 00:33:46;;;;;;;18.10;3.85;;;12.50;97.80;;;;;;5150008;27;20045;-86
2021/05/06 00:36:12;;;;;;;21.95;3.80;;;12.60;97.90;;;;;;5139531;27;20019;-86
2021/05/06 00:38:50;;;;;;;25.02;4.72;;;12.60;98.00;;;;;;5126464;27;20031;-86
2021/05/06 00:46:53;;;;;;;25.33;4.28;;;12.70;98.30;;;;;;5140049;27;20053;-87
2021/05/06 01:03:16;;;;;;;19.63;3.30;;;12.80;99.00;;;;;;5149556;27;20026;-88
2021/05/06 01:05:47;;;;;;;18.88;3.35;;;12.90;99.00;;;;;;5134085;27;20438;-86
2021/05/06 01:08:20;;;;;;;18.17;2.90;;;12.90;99.00;;;;;;5146559;27;20022;-87
2021/05/06 01:10:58;;;;;;;14.98;2.78;;;12.90;98.90;;;;;;5133642;27;20585;-87
2021/05/06 01:13:29;;;;;;;21.65;3.00;;;13.00;98.90;;;;;;5149374;27;20114;-87
2021/05/06 01:15:55;;;;;;;18.10;3.00;;;13.00;99.00;;;;;;5118942;27;20015;-87
2021/05/06 01:18:22;;;;;;;22.50;3.13;;;13.00;99.10;;;;;;5122828;27;20433;-86
2021/05/06 01:20:56;;;;;;;17.92;2.60;;;13.00;99.10;;;;;;5122426;27;20028;-86
2021/05/06 01:23:24;;;;;;;16.75;2.55;;;13.10;99.20;;;;;;5116268;27;20035;-86
2021/05/06 01:25:54;;;;;;;19.50;3.13;;;13.10;99.20;;;;;;5105048;27;20042;-86
2021/05/06 01:28:25;;;;;;;15.88;2.70;;;13.10;99.40;;;;;;5118465;27;20072;-86
2021/05/06 01:31:34;;;;;;;16.48;2.95;;;13.20;99.50;;;;;;5124244;27;20094;-87
2021/05/06 01:36:10;;;;;;;12.30;2.78;;;13.20;99.40;;;;;;5122688;27;20524;-93
2021/05/06 01:57:41;;;;;;;25.15;3.17;;;13.50;99.90;;;;;;5134167;27;20624;-86
2021/05/06 02:00:11;;;;;;;19.52;3.30;;;13.50;99.90;;;;;;5124579;27;20043;-87
2021/05/06 02:02:37;;;;;;;16.55;3.42;;;13.50;99.90;;;;;;5133092;27;20587;-87
2021/05/06 02:05:04;;;;;;;24.52;5.60;;;13.50;99.90;;;;;;5129109;27;20027;-88
2021/05/06 02:07:30;;;;;;;22.92;4.93;;;13.60;99.90;;;;;;5114076;27;20611;-88
2021/05/06 02:09:56;;;;;;;23.52;4.82;;;13.50;99.90;;;;;;5134416;27;20035;-86
2021/05/06 02:12:22;;;;;;;24.10;5.75;;;13.50;99.90;;;;;;5122607;27;20043;-88
2021/05/06 02:14:58;;;;;;;21.92;5.68;;;13.50;99.90;;;;;;5118646;27;20058;-88
2021/05/06 02:17:24;;;;;;;24.58;6.70;;;13.50;99.90;;;;;;5129910;27;20078;-87
2021/05/06 02:19:50;;;;;;;30.63;6.82;;;13.50;99.90;;;;;;5106919;27;20543;-87
2021/05/06 02:22:17;;;;;;;31.05;6.32;;;13.60;99.90;;;;;;5136592;27;20039;-88
2021/05/06 02:24:44;;;;;;;30.85;7.90;;;13.60;99.90;;;;;;5125657;27;20506;-87
2021/05/06 02:27:10;;;;;;;30.98;7.75;;;13.60;99.90;;;;;;5128988;27;20030;-88
2021/05/06 02:29:36;;;;;;;29.52;7.30;;;13.60;99.90;;;;;;5113314;27;20015;-88
2021/05/06 02:32:02;;;;;;;21.10;6.53;;;13.60;99.90;;;;;;5115987;27;20057;-96
2021/05/06 02:34:28;;;;;;;22.27;6.70;;;13.60;99.90;;;;;;5126137;27;20153;-91
2021/05/06 02:36:53;;;;;;;24.80;6.30;;;13.60;99.90;;;;;;5140197;27;20038;-90
2021/05/06 02:39:19;;;;;;;25.33;7.07;;;13.60;99.90;;;;;;5123994;27;20110;-88
2021/05/06 02:41:46;;;;;;;27.77;7.90;;;13.60;99.90;;;;;;5120752;27;20391;-87
2021/05/06 02:44:11;;;;;;;31.92;8.18;;;13.60;99.90;;;;;;5143691;27;20023;-88
2021/05/06 02:46:37;;;;;;;27.73;6.63;;;13.60;99.90;;;;;;5105635;27;20038;-89
2021/05/06 02:49:03;;;;;;;26.73;7.18;;;13.60;99.90;;;;;;5126599;27;20023;-87
2021/05/06 02:51:37;;;;;;;26.58;7.72;;;13.60;99.90;;;;;;5124743;27;20008;-88
2021/05/06 02:54:03;;;;;;;27.08;7.43;;;13.60;99.90;;;;;;5146555;27;20105;-86
2021/05/06 02:56:48;;;;;;;24.38;7.70;;;13.60;99.90;;;;;;5125067;27;20016;-87
2021/05/06 03:02:40;;;;;;;24.27;7.03;;;13.60;99.90;;;;;;5141107;27;20023;-86
2021/05/06 03:04:50;;;;;;;28.75;7.78;;;13.60;99.90;;;;;;5137862;27;20029;-86
2021/05/06 03:07:21;;;;;;;28.10;7.47;;;13.50;99.90;;;;;;5127026;27;20031;-86
2021/05/06 03:22:59;;;;;;;25.48;7.00;;;13.60;99.90;;;;;;5130181;27;20552;-86
2021/05/06 03:25:28;;;;;;;30.20;7.40;;;13.50;99.90;;;;;;5123206;27;20020;-85
2021/05/06 03:28:02;;;;;;;31.20;7.97;;;13.50;99.90;;;;;;5131380;27;20027;-86
2021/05/06 04:37:53;;;;;;;27.98;5.50;;;13.50;99.90;;;;;;5137570;27;20022;-85
2021/05/06 04:54:06;;;;;;;27.85;4.63;;;13.50;99.90;;;;;;5145956;27;20046;-86
2021/05/06 05:04:33;;;;;;;25.27;4.30;;;13.50;99.90;;;;;;5123497;27;20560;-84
2021/05/06 05:18:07;;;;;;;30.52;4.95;;;13.50;99.90;;;;;;5035551;28;20028;-85
2021/05/06 05:25:57;;;;;;;;;;;13.50;99.90;;;;;;5113924;28;20030;-87
2021/05/06 05:28:22;;;;;;;37.45;5.55;;;13.50;99.90;;;;;;5136290;27;19914;-90
2021/05/06 05:30:48;;;;;;;29.83;5.82;;;13.50;99.90;;;;;;5133712;27;20023;-82
2021/05/06 05:33:17;;;;;;;34.72;6.13;;;13.60;99.90;;;;;;5120549;27;20019;-82
2021/05/06 05:35:56;;;;;;;30.48;6.90;;;13.60;99.90;;;;;;5130090;27;20031;-83
2021/05/06 05:43:46;;;;;;;44.20;5.70;;;13.70;99.90;;;;;;5134039;27;20031;-84
2021/05/06 05:56:51;;;;;;;32.45;6.15;;;13.70;99.90;;;;;;5133621;27;20489;-84
2021/05/06 05:59:17;;;;;;;25.27;5.20;;;13.70;99.90;;;;;;5124298;27;20047;-84
2021/05/06 06:01:43;;;;;;;30.52;5.47;;;13.70;99.90;;;;;;5117896;27;20061;-84
2021/05/06 06:04:08;;;;;;;27.85;5.95;;;13.70;99.90;;;;;;5115519;27;20031;-84
2021/05/06 06:06:34;;;;;;;24.80;5.35;;;13.70;99.90;;;;;;5116126;27;20075;-84
2021/05/06 06:09:00;;;;;;;35.20;5.88;;;13.70;99.90;;;;;;5135114;27;20026;-83
2021/05/06 06:11:26;;;;;;;28.15;5.75;;;13.80;99.90;;;;;;5129302;27;20537;-84
2021/05/06 06:13:53;;;;;;;27.08;5.80;;;13.80;99.90;;;;;;5141877;27;20026;-83
2021/05/06 06:16:23;;;;;;;35.88;6.38;;;13.80;99.90;;;;;;5128012;27;20015;-83
2021/05/06 06:18:55;;;;;;;34.13;6.18;;;13.80;99.90;;;;;;5121878;27;20035;-84
2021/05/06 06:24:16;;;;;;;39.22;7.40;;;13.80;99.90;;;;;;5116456;27;20046;-84
2021/05/06 06:26:42;;;;;;;29.45;6.63;;;13.80;99.90;;;;;;5122285;27;20023;-84
2021/05/06 06:29:10;;;;;;;36.30;7.70;;;13.90;99.90;;;;;;5126815;27;20026;-84
2021/05/06 06:31:42;;;;;;;37.60;7.03;;;13.90;99.90;;;;;;5123483;27;20019;-85
2021/05/06 06:34:08;;;;;;;34.45;7.32;;;13.90;99.90;;;;;;5146760;27;20025;-84
2021/05/06 06:36:35;;;;;;;33.55;7.35;;;13.90;99.90;;;;;;5116027;27;20030;-84
2021/05/06 06:39:02;;;;;;;33.35;6.63;;;13.90;99.90;;;;;;5146712;27;20023;-84
2021/05/06 06:41:27;;;;;;;30.40;6.88;;;13.90;99.90;;;;;;5115002;27;20026;-84
2021/05/06 06:43:55;;;;;;;33.65;6.97;;;13.90;99.90;;;;;;5127845;27;20035;-84
2021/05/06 06:46:21;;;;;;;33.70;8.05;;;13.90;99.90;;;;;;5137870;27;20503;-84
2021/05/06 06:48:47;;;;;;;34.25;7.10;;;13.90;99.90;;;;;;5149434;27;20044;-84
2021/05/06 06:51:13;;;;;;;41.22;8.80;;;13.90;99.90;;;;;;5139654;27;20528;-84
2021/05/06 06:53:39;;;;;;;34.55;7.07;;;13.90;99.90;;;;;;5149782;27;20073;-84
2021/05/06 06:56:05;;;;;;;30.20;6.93;;;13.90;99.90;;;;;;5141691;27;20030;-84
2021/05/06 06:58:31;;;;;;;35.40;5.72;;;13.90;99.90;;;;;;5147460;27;20029;-84
2021/05/06 07:00:57;;;;;;;31.10;6.05;;;13.90;99.90;;;;;;5125123;27;20031;-83
2021/05/06 07:03:23;;;;;;;30.17;6.05;;;13.90;99.90;;;;;;5148223;27;20026;-82
2021/05/06 07:05:49;;;;;;;33.33;6.32;;;13.90;99.90;;;;;;5127133;27;20080;-83
2021/05/06 07:08:16;;;;;;;31.65;5.53;;;13.90;99.90;;;;;;5148121;27;20018;-83
2021/05/06 07:10:43;;;;;;;37.38;6.82;;;13.90;99.90;;;;;;5132584;27;20471;-83
2021/05/06 07:13:09;;;;;;;39.03;5.90;;;13.90;99.90;;;;;;5144032;27;20042;-85
2021/05/06 07:15:35;;;;;;;31.92;5.97;;;13.90;99.90;;;;;;5134913;27;20026;-85
2021/05/06 07:18:00;;;;;;;24.48;5.45;;;14.00;99.90;;;;;;5143350;27;20034;-84
2021/05/06 07:20:27;;;;;;;33.92;6.45;;;13.90;99.90;;;;;;5137453;27;20023;-83
2021/05/06 07:22:53;;;;;;;23.05;5.00;;;13.90;99.90;;;;;;5143258;27;20625;-84
2021/05/06 07:25:18;;;;;;;33.72;5.97;;;13.90;99.90;;;;;;5139153;27;20015;-89
2021/05/06 07:27:44;;;;;;;27.33;5.55;;;13.90;99.90;;;;;;5141925;27;20067;-89
2021/05/06 07:30:10;;;;;;;16.85;3.80;;;13.90;99.90;;;;;;5141001;27;20098;-87
2021/05/06 07:32:36;;;;;;;20.40;3.30;;;13.80;99.90;;;;;;5139396;27;20482;-85
2021/05/06 07:35:03;;;;;;;26.30;4.00;;;13.70;99.90;;;;;;5136503;27;20015;-84
2021/05/06 07:37:29;;;;;;;21.13;3.15;;;13.70;99.90;;;;;;5140149;27;20068;-86
2021/05/06 07:39:55;;;;;;;11.25;2.65;;;13.70;99.90;;;;;;5118799;27;20047;-86
2021/05/06 07:42:20;;;;;;;14.95;3.75;;;13.70;99.90;;;;;;5121233;27;20482;-88
2021/05/06 07:44:46;;;;;;;16.98;3.13;;;13.60;99.90;;;;;;5140569;27;20352;-87
2021/05/06 07:47:12;;;;;;;21.83;3.85;;;13.60;99.90;;;;;;5138456;27;20428;-88
2021/05/06 07:49:38;;;;;;;19.63;3.42;;;13.50;99.90;;;;;;5125619;27;20590;-87
2021/05/06 07:52:06;;;;;;;20.67;3.38;;;13.40;99.90;;;;;;5137159;27;20018;-87
2021/05/06 07:54:32;;;;;;;28.70;4.03;;;13.30;99.90;;;;;;5128214;27;20126;-88
2021/05/06 07:56:58;;;;;;;29.50;4.78;;;13.30;99.90;;;;;;5121922;27;20098;-87
2021/05/06 07:59:25;;;;;;;21.83;3.63;;;13.20;99.90;;;;;;5147544;27;20030;-86
2021/05/06 08:01:51;;;;;;;19.63;3.22;;;13.20;99.90;;;;;;5136462;27;20022;-87
2021/05/06 08:04:19;;;;;;;11.20;2.90;;;13.10;99.90;;;;;;5145409;27;20030;-86
2021/05/06 08:06:45;;;;;;;15.98;3.10;;;13.20;99.80;;;;;;5134605;27;20022;-90
2021/05/06 08:09:11;;;;;;;11.68;2.70;;;13.10;99.80;;;;;;5123905;27;20022;-89
2021/05/06 08:11:37;;;;;;;21.50;2.92;;;13.10;99.80;;;;;;5114483;27;20043;-87
2021/05/06 08:14:03;;;;;;;15.80;2.75;;;13.20;99.80;;;;;;5142896;27;20023;-89
2021/05/06 08:16:28;;;;;;;18.98;3.60;;;13.20;99.90;;;;;;5131815;27;20046;-88
2021/05/06 08:18:54;;;;;;;26.27;4.53;;;13.30;99.90;;;;;;5142491;27;20033;-90
2021/05/06 08:21:20;;;;;;;21.05;4.45;;;13.40;99.90;;;;;;5132200;27;20032;-90
2021/05/06 08:23:45;;;;;;;17.02;2.90;;;13.40;99.90;;;;;;5143568;27;20034;-89
2021/05/06 08:26:11;;;;;;;16.27;2.80;;;13.40;99.80;;;;;;5134177;27;20023;-90
2021/05/06 08:28:37;;;;;;;15.82;3.53;;;13.40;99.50;;;;;;5124920;27;20111;-90
2021/05/06 08:31:03;;;;;;;15.60;3.20;;;13.50;99.70;;;;;;5117772;28;20084;-89
2021/05/06 08:33:29;;;;;;;21.67;3.80;;;13.50;99.60;;;;;;5125338;27;20088;-89
2021/05/06 08:35:54;;;;;;;13.02;3.30;;;13.60;99.70;;;;;;5116329;28;20074;-88
2021/05/06 08:38:20;;;;;;;13.70;2.92;;;13.60;99.40;;;;;;5118311;27;20395;-88
2021/05/06 08:40:49;;;;;;;13.20;3.47;;;13.60;99.40;;;;;;5125580;27;20053;-88
2021/05/06 08:43:15;;;;;;;20.25;3.10;;;13.70;99.40;;;;;;5126571;27;20046;-89
2021/05/06 08:45:47;;;;;;;17.58;3.40;;;13.70;99.40;;;;;;5123935;27;20406;-89
2021/05/06 08:48:16;;;;;;;19.90;3.67;;;13.60;99.50;;;;;;5146024;27;20023;-89
2021/05/06 08:50:43;;;;;;;13.48;3.65;;;13.60;99.60;;;;;;5143704;27;20015;-90
2021/05/06 08:53:10;;;;;;;16.38;3.10;;;13.60;99.70;;;;;;5128800;27;20041;-90
2021/05/06 08:55:36;;;;;;;20.67;3.17;;;13.70;99.80;;;;;;5125747;27;20031;-89
2021/05/06 08:58:02;;;;;;;14.50;3.60;;;13.70;99.70;;;;;;5129229;27;20394;-89
2021/05/06 09:00:28;;;;;;;15.73;3.90;;;13.70;99.80;;;;;;5126236;27;20041;-89
2021/05/06 09:02:53;;;;;;;16.95;3.70;;;13.80;99.90;;;;;;5147003;27;20064;-89
2021/05/06 09:05:22;;;;;;;19.55;3.75;;;13.90;99.90;;;;;;5146750;27;20023;-88
2021/05/06 09:07:48;;;;;;;19.83;4.38;;;13.90;99.70;;;;;;5145517;27;20117;-88
2021/05/06 09:10:36;;;;;;;15.20;4.20;;;14.00;99.50;;;;;;5130441;27;20460;-86
2021/05/06 09:13:23;;;;;;;19.25;4.80;;;14.00;99.50;;;;;;5145990;27;20529;-85
2021/05/06 09:15:49;;;;;;;16.00;3.95;;;13.90;99.20;;;;;;5119828;27;20140;-84
2021/05/06 09:18:43;;;;;;;18.92;4.22;;;14.00;99.30;;;;;;5148852;27;20101;-84
2021/05/06 09:21:24;;;;;;;20.77;4.65;;;14.00;99.40;;;;;;5126419;27;20023;-84
2021/05/06 09:24:12;;;;;;;18.67;3.95;;;14.10;99.30;;;;;;5148418;27;20547;-84
2021/05/06 09:26:40;;;;;;;21.73;3.65;;;14.10;99.00;;;;;;5117487;27;20576;-84
2021/05/06 09:29:09;;;;;;;21.75;3.72;;;14.10;98.90;;;;;;5126755;27;20052;-84
2021/05/06 09:31:37;;;;;;;24.50;4.90;;;14.20;98.70;;;;;;5135491;27;20153;-84
2021/05/06 09:34:09;;;;;;;21.98;3.58;;;14.20;98.70;;;;;;5147221;27;20072;-84
2021/05/06 09:36:36;;;;;;;19.02;2.92;;;14.20;98.90;;;;;;5135346;27;20019;-84
2021/05/06 09:39:07;;;;;;;12.77;3.70;;;14.20;98.30;;;;;;5130302;27;20034;-84
2021/05/06 09:41:36;;;;;;;22.38;4.13;;;14.30;98.50;;;;;;5135050;27;20026;-84
2021/05/06 09:44:18;;;;;;;12.73;3.83;;;14.20;98.50;;;;;;5145764;27;20027;-84
2021/05/06 09:46:56;;;;;;;13.30;3.88;;;14.20;98.50;;;;;;5136495;27;20022;-85
2021/05/06 09:49:22;;;;;;;14.70;2.85;;;14.20;98.50;;;;;;5122851;27;20435;-84
2021/05/06 09:51:59;;;;;;;23.85;4.40;;;14.30;98.20;;;;;;5136974;27;20035;-85
2021/05/06 09:54:27;;;;;;;21.55;2.90;;;14.30;98.20;;;;;;5133004;27;20500;-85
2021/05/06 09:56:58;;;;;;;15.82;2.85;;;14.40;97.80;;;;;;5118835;27;20015;-84
2021/05/06 09:59:26;;;;;;;19.85;3.28;;;14.30;98.10;;;;;;5130999;27;20034;-85
2021/05/06 10:01:52;;;;;;;14.27;2.78;;;14.30;98.10;;;;;;5138101;27;20019;-86
2021/05/06 10:04:19;;;;;;;18.65;3.85;;;14.30;98.00;;;;;;5150389;27;20049;-86
2021/05/06 10:07:03;;;;;;;18.90;3.10;;;14.30;98.10;;;;;;5137374;27;20498;-85
2021/05/06 10:09:30;;;;;;;21.80;4.05;;;14.30;98.20;;;;;;5148733;27;20022;-86
2021/05/06 10:11:57;;;;;;;15.85;3.05;;;14.30;97.60;;;;;;5141088;27;20117;-86
2021/05/06 10:14:23;;;;;;;20.00;3.47;;;14.30;97.80;;;;;;5145977;27;20152;-86
2021/05/06 10:16:49;;;;;;;24.77;4.07;;;14.40;98.00;;;;;;5136017;27;20026;-86
2021/05/06 10:19:16;;;;;;;22.35;2.97;;;14.40;98.20;;;;;;5131399;27;20109;-86
2021/05/06 10:21:44;;;;;;;23.77;4.03;;;14.50;97.60;;;;;;5138876;27;20019;-87
2021/05/06 10:24:10;;;;;;;18.40;3.95;;;14.50;97.80;;;;;;5132444;27;20052;-87
2021/05/06 10:26:38;;;;;;;22.10;4.28;;;14.50;97.50;;;;;;5122097;27;20130;-88
2021/05/06 10:29:04;;;;;;;24.08;3.90;;;14.70;97.50;;;;;;5150461;27;20521;-88
2021/05/06 10:31:30;;;;;;;21.42;4.95;;;14.90;97.20;;;;;;5122796;27;20023;-89
2021/05/06 10:33:55;;;;;;;26.05;4.00;;;15.00;96.90;;;;;;5132908;27;20030;-90
2021/05/06 10:36:23;;;;;;;22.48;4.57;;;15.10;96.50;;;;;;5144286;27;20030;-90
2021/05/06 10:38:49;;;;;;;28.00;4.28;;;15.00;96.20;;;;;;5131102;27;20050;-87
2021/05/06 10:41:41;;;;;;;19.77;3.83;;;15.00;96.10;;;;;;5132000;27;20062;-88
2021/05/06 10:44:10;;;;;;;23.83;4.47;;;15.00;96.60;;;;;;5120755;27;20570;-89
2021/05/06 10:47:04;;;;;;;38.58;5.43;;;14.90;96.30;;;;;;5134180;27;20106;-90
2021/05/06 10:49:49;;;;;;;26.33;4.35;;;14.70;96.00;;;;;;5122960;27;20023;-89
2021/05/06 10:52:17;;;;;;;28.65;4.38;;;14.70;96.50;;;;;;5130502;27;20052;-89
2021/05/06 10:54:51;;;;;;;32.08;5.53;;;14.80;96.60;;;;;;5144644;27;20027;-88
2021/05/06 10:57:19;;;;;;;26.55;4.68;;;14.90;96.30;;;;;;5139390;27;20030;-90
2021/05/06 10:59:46;;;;;;;28.27;5.53;;;14.90;95.40;;;;;;5127253;27;20097;-88
2021/05/06 11:02:42;;;;;;;30.52;5.60;;;14.80;95.80;;;;;;5119706;27;20545;-90
2021/05/06 11:05:27;;;;;;;31.15;5.72;;;14.90;96.60;;;;;;5115046;27;20490;-91
2021/05/06 11:08:04;;;;;;;30.63;5.68;;;14.90;96.30;;;;;;5122100;27;20023;-89
2021/05/06 11:10:51;;;;;;;29.38;5.75;;;14.80;96.40;;;;;;5137773;27;20031;-88
2021/05/06 11:13:18;;;;;;;28.50;5.53;;;14.70;96.80;;;;;;5133661;27;20472;-91
2021/05/06 11:15:44;;;;;;;34.08;5.50;;;14.70;97.00;;;;;;5138951;27;20043;-88
2021/05/06 11:18:12;;;;;;;29.40;5.30;;;14.60;97.00;;;;;;5135202;27;20076;-90
2021/05/06 11:20:46;;;;;;;41.53;6.32;;;14.60;97.10;;;;;;5132387;27;20102;-89
2021/05/06 11:23:23;;;;;;;32.95;6.47;;;14.60;97.30;;;;;;5129943;27;20514;-91
2021/05/06 11:26:01;;;;;;;36.28;6.43;;;14.60;97.20;;;;;;5111882;27;20046;-90
2021/05/06 11:28:30;;;;;;;37.78;8.13;;;14.50;97.20;;;;;;5124795;27;20482;-91
2021/05/06 11:30:56;;;;;;;30.80;6.05;;;14.60;96.90;;;;;;5123516;27;20553;-92
2021/05/06 11:33:22;;;;;;;38.67;6.68;;;14.70;96.60;;;;;;5136273;27;20015;-91
2021/05/06 11:35:58;;;;;;;33.40;6.45;;;14.70;96.40;;;;;;5113780;27;20031;-91
2021/05/06 11:38:44;;;;;;;42.55;7.32;;;14.70;96.10;;;;;;5141314;27;20018;-90
2021/05/06 11:41:16;;;;;;;50.08;7.05;;;14.80;95.90;;;;;;5118188;27;20104;-91
2021/05/06 11:43:53;;;;;;;35.53;6.85;;;14.90;95.70;;;;;;5129623;27;20079;-89
2021/05/06 11:46:19;;;;;;;53.00;7.38;;;14.80;95.50;;;;;;5099468;27;20027;-90
2021/05/06 11:48:57;;;;;;;39.55;7.82;;;14.80;95.90;;;;;;5127877;27;20042;-90
2021/05/06 11:51:34;;;;;;;40.35;7.93;;;14.80;95.80;;;;;;5112900;27;20096;-90
2021/05/06 11:54:04;;;;;;;39.20;6.78;;;14.90;95.50;;;;;;5145984;27;20049;-91
2021/05/06 11:56:30;;;;;;;36.65;7.53;;;15.00;95.50;;;;;;5127212;27;20022;-92
2021/05/06 11:58:56;;;;;;;36.60;6.38;;;14.90;95.00;;;;;;5133776;27;20034;-90
2021/05/06 12:01:29;;;;;;;46.42;7.22;;;14.90;95.10;;;;;;5099304;27;20025;-89
2021/05/06 12:03:56;;;;;;;42.35;6.97;;;14.90;94.90;;;;;;5136042;27;20103;-89
2021/05/06 12:06:35;;;;;;;42.20;8.23;;;14.90;94.50;;;;;;5131215;27;20015;-90
2021/05/06 12:09:04;;;;;;;40.70;7.60;;;14.90;94.80;;;;;;5134475;27;20504;-90
2021/05/06 12:11:41;;;;;;;45.53;8.23;;;15.00;94.20;;;;;;5131754;27;20062;-90
2021/05/06 12:14:09;;;;;;;35.85;5.82;;;15.10;94.60;;;;;;5142659;27;20046;-90
2021/05/06 12:16:36;;;;;;;41.17;7.85;;;15.10;93.60;;;;;;5109196;27;20027;-90
2021/05/06 12:19:09;;;;;;;44.90;8.68;;;15.00;94.60;;;;;;5125126;27;20109;-90
2021/05/06 12:21:36;;;;;;;41.60;6.53;;;15.10;94.40;;;;;;5122101;27;20110;-90
2021/05/06 12:24:04;;;;;;;35.80;7.00;;;15.10;93.90;;;;;;5126021;28;20027;-90
2021/05/06 12:26:30;;;;;;;46.40;7.13;;;15.20;94.20;;;;;;5131679;27;20015;-89
2021/05/06 12:28:57;;;;;;;37.00;6.78;;;15.40;93.40;;;;;;5144931;27;20512;-90
2021/05/06 12:31:23;;;;;;;34.38;6.38;;;15.50;92.90;;;;;;5112189;27;20011;-91
2021/05/06 12:33:49;;;;;;;37.15;7.32;;;15.50;92.40;;;;;;5146733;27;20390;-90
2021/05/06 12:36:17;;;;;;;38.63;7.10;;;15.30;93.10;;;;;;5112410;28;20463;-91
2021/05/06 12:38:43;;;;;;;41.90;7.15;;;15.30;93.60;;;;;;5129740;27;20016;-90
2021/05/06 12:41:11;;;;;;;51.60;8.38;;;15.30;93.90;;;;;;5113059;28;20031;-91
2021/05/06 12:43:48;;;;;;;42.92;6.93;;;15.20;93.70;;;;;;5130388;27;20414;-92
2021/05/06 12:46:21;;;;;;;47.80;8.05;;;15.10;93.30;;;;;;5115124;28;20399;-90
2021/05/06 12:48:57;;;;;;;38.88;7.53;;;15.20;93.00;;;;;;5142150;27;20103;-90
2021/05/06 12:51:34;;;;;;;37.67;6.90;;;15.30;92.90;;;;;;5131736;27;20102;-91
2021/05/06 12:54:06;;;;;;;37.20;7.03;;;15.30;92.20;;;;;;5116928;28;20039;-91
2021/05/06 12:56:36;;;;;;;36.97;6.85;;;15.30;92.60;;;;;;5113403;27;20463;-90
2021/05/06 12:59:22;;;;;;;33.63;6.78;;;15.40;92.20;;;;;;5121090;27;20333;-88
2021/05/06 13:01:48;;;;;;;43.03;6.53;;;15.30;91.50;;;;;;5101333;27;20027;-89
2021/05/06 13:04:14;;;;;;;37.40;6.50;;;15.30;92.20;;;;;;5125850;27;20026;-88
2021/05/06 13:06:39;;;;;;;45.47;7.70;;;15.30;92.60;;;;;;5133768;27;20092;-89
2021/05/06 13:09:13;;;;;;;42.08;7.50;;;15.30;92.20;;;;;;5147625;27;20037;-89
2021/05/06 13:11:39;;;;;;;47.28;7.32;;;15.20;92.80;;;;;;5136573;27;20475;-89
2021/05/06 13:14:05;;;;;;;42.60;6.60;;;15.20;92.40;;;;;;5146076;27;20027;-89
2021/05/06 13:16:43;;;;;;;35.33;6.95;;;15.30;92.20;;;;;;5116959;27;20055;-90
2021/05/06 13:19:12;;;;;;;35.50;6.75;;;15.60;92.40;;;;;;5145834;27;20031;-89
2021/05/06 13:21:50;;;;;;;46.88;7.88;;;15.60;90.90;;;;;;5136754;27;20054;-89
2021/05/06 13:24:16;;;;;;;44.38;6.93;;;15.80;91.50;;;;;;5148766;27;20023;-89
2021/05/06 13:26:44;;;;;;;36.63;6.85;;;15.90;91.00;;;;;;5140182;27;20026;-88
2021/05/06 13:29:16;;;;;;;36.67;6.07;;;15.80;90.70;;;;;;5133598;27;20045;-88
2021/05/06 13:31:44;;;;;;;38.85;6.70;;;15.80;91.00;;;;;;5124107;27;20121;-89
2021/05/06 13:34:17;;;;;;;31.95;6.30;;;16.20;90.20;;;;;;5133397;27;20027;-89
2021/05/06 13:36:45;;;;;;;41.65;6.95;;;16.70;88.20;;;;;;5143338;27;20019;-89
2021/05/06 13:39:13;;;;;;;33.90;6.03;;;16.90;86.50;;;;;;5148427;27;20018;-89
2021/05/06 13:41:40;;;;;;;43.03;7.38;;;17.10;84.80;;;;;;5135480;27;20042;-89
2021/05/06 13:44:07;;;;;;;35.20;6.88;;;17.10;84.70;;;;;;5146189;27;20111;-89
2021/05/06 13:46:42;;;;;;;41.60;6.93;;;17.20;82.30;;;;;;5116012;27;20554;-88
2021/05/06 13:49:08;;;;;;;43.22;7.32;;;16.60;86.70;;;;;;5144575;27;20433;-89
2021/05/06 13:51:33;;;;;;;41.30;6.38;;;16.30;89.50;;;;;;5134498;27;20027;-88
2021/05/06 13:53:59;;;;;;;39.20;6.38;;;16.40;90.00;;;;;;5120504;27;20031;-89
2021/05/06 13:56:25;;;;;;;41.63;7.18;;;16.70;88.20;;;;;;5114710;27;20080;-89
2021/05/06 13:58:51;;;;;;;51.40;7.97;;;16.80;87.30;;;;;;5152175;27;20027;-89
2021/05/06 14:01:19;;;;;;;33.10;6.13;;;16.90;87.10;;;;;;5115181;27;20372;-88
2021/05/06 14:03:45;;;;;;;37.70;7.13;;;17.00;87.10;;;;;;5133553;27;20030;-88
2021/05/06 14:06:11;;;;;;;37.95;7.43;;;17.30;86.50;;;;;;5118183;27;20050;-90
2021/05/06 14:08:37;;;;;;;36.33;6.32;;;18.00;84.20;;;;;;5142955;27;20030;-90
2021/05/06 14:11:03;;;;;;;37.55;6.82;;;18.30;82.30;;;;;;5118568;27;20533;-89
2021/05/06 14:13:31;;;;;;;28.90;6.25;;;18.20;80.60;;;;;;5142590;27;20110;-90
2021/05/06 14:15:57;;;;;;;45.53;8.95;;;17.60;82.20;;;;;;5120213;27;20026;-90
2021/05/06 14:18:23;;;;;;;35.53;6.88;;;18.00;80.10;;;;;;5127376;27;20026;-89
2021/05/06 14:20:49;;;;;;;35.85;6.80;;;18.30;80.10;;;;;;5144412;27;20437;-89
2021/05/06 14:23:18;;;;;;;35.03;6.47;;;17.70;81.30;;;;;;5148030;27;20042;-89
2021/05/06 14:25:45;;;;;;;32.88;5.93;;;17.50;80.90;;;;;;5145150;27;20019;-89
2021/05/06 14:28:11;;;;;;;28.27;6.32;;;17.80;80.60;;;;;;5147009;27;20038;-89
2021/05/06 14:30:37;;;;;;;25.38;4.90;;;18.00;80.40;;;;;;5147429;27;20083;-90
2021/05/06 14:33:03;;;;;;;35.75;5.90;;;18.30;77.10;;;;;;5145335;27;20027;-90
2021/05/06 14:35:30;;;;;;;31.67;6.40;;;17.70;78.50;;;;;;5131490;27;20019;-89
2021/05/06 14:37:56;;;;;;;36.25;6.25;;;17.50;80.60;;;;;;5126323;27;20034;-90
2021/05/06 14:40:22;;;;;;;31.92;6.55;;;17.40;80.80;;;;;;5137610;27;20092;-92
2021/05/06 14:42:47;;;;;;;34.88;6.80;;;17.10;82.60;;;;;;5121968;27;20124;-92
2021/05/06 14:45:14;;;;;;;32.33;5.90;;;16.90;83.40;;;;;;5139538;27;20081;-89
2021/05/06 14:47:40;;;;;;;39.33;6.85;;;16.80;84.70;;;;;;5139493;27;20045;-88
2021/05/06 14:50:09;;;;;;;41.78;7.28;;;16.70;85.00;;;;;;5141163;27;20094;-90
2021/05/06 14:52:35;;;;;;;35.65;7.05;;;17.10;84.20;;;;;;5120655;27;20033;-89
2021/05/06 14:55:00;;;;;;;40.90;7.07;;;17.10;84.50;;;;;;5142990;27;20464;-89
2021/05/06 14:57:26;;;;;;;45.20;6.68;;;17.30;84.50;;;;;;5120244;27;20035;-90
2021/05/06 14:59:52;;;;;;;36.63;6.53;;;17.40;83.90;;;;;;5127030;27;20038;-89
2021/05/06 15:02:18;;;;;;;38.05;7.05;;;17.30;84.00;;;;;;5122526;27;20133;-90
2021/05/06 15:04:44;;;;;;;31.70;6.15;;;17.30;83.00;;;;;;5146152;27;20019;-89
2021/05/06 15:07:09;;;;;;;33.72;6.53;;;17.20;82.80;;;;;;5138305;27;20073;-90
2021/05/06 15:09:36;;;;;;;34.95;6.18;;;17.20;83.80;;;;;;5121068;27;20023;-90
2021/05/06 15:12:02;;;;;;;35.80;5.93;;;17.50;81.10;;;;;;5118176;27;20039;-90
2021/05/06 15:14:28;;;;;;;35.38;6.32;;;18.00;79.10;;;;;;5142676;27;20049;-90
2021/05/06 15:16:54;;;;;;;36.03;7.45;;;18.80;78.40;;;;;;5134978;27;20526;-89
2021/05/06 15:19:19;;;;;;;30.13;6.10;;;18.80;74.90;;;;;;5121526;27;20023;-90
2021/05/06 15:21:46;;;;;;;34.33;5.97;;;18.50;75.40;;;;;;5137678;27;20099;-90
2021/05/06 15:24:11;;;;;;;25.88;5.70;;;18.00;77.70;;;;;;5149935;27;20048;-90
2021/05/06 15:26:38;;;;;;;37.03;7.28;;;17.60;78.20;;;;;;5121084;27;20023;-89
2021/05/06 15:29:04;;;;;;;27.27;5.63;;;17.30;80.40;;;;;;5125792;27;20034;-89
2021/05/06 15:31:31;;;;;;;34.65;6.55;;;17.10;81.70;;;;;;5121688;27;20590;-89
2021/05/06 15:33:57;;;;;;;36.58;7.40;;;17.30;81.50;;;;;;5129733;27;20046;-90
2021/05/06 15:36:23;;;;;;;37.50;6.22;;;17.20;81.70;;;;;;5141277;27;20351;-89
2021/05/06 15:38:50;;;;;;;41.42;7.45;;;17.00;83.20;;;;;;5132966;27;20054;-92
2021/05/06 15:41:16;;;;;;;35.25;6.85;;;16.60;85.30;;;;;;5125235;27;20019;-91
2021/05/06 15:43:41;;;;;;;36.65;6.47;;;16.50;86.20;;;;;;5127390;27;20177;-90
2021/05/06 15:46:09;;;;;;;45.75;7.40;;;16.30;86.40;;;;;;5131767;27;20011;-91
2021/05/06 15:48:35;;;;;;;39.67;6.65;;;16.10;87.60;;;;;;5124062;27;20035;-94
2021/05/06 15:51:01;;;;;;;41.33;7.75;;;16.10;88.40;;;;;;5133033;27;20065;-91
2021/05/06 15:53:28;;;;;;;41.08;6.68;;;16.00;88.20;;;;;;5128299;27;20023;-91
2021/05/06 15:55:58;;;;;;;38.75;6.10;;;16.30;86.70;;;;;;5122025;27;20034;-91
2021/05/06 15:58:24;;;;;;;43.60;7.75;;;16.20;86.10;;;;;;5129340;27;20027;-91
2021/05/06 16:00:54;;;;;;;36.22;7.38;;;16.30;86.40;;;;;;5117323;27;20286;-91
2021/05/06 16:03:20;;;;;;;44.50;6.72;;;16.70;86.70;;;;;;5146279;27;20056;-90
2021/05/06 16:05:52;;;;;;;40.58;7.47;;;16.70;85.00;;;;;;5115706;27;20037;-91
2021/05/06 16:08:18;;;;;;;33.00;6.53;;;16.90;84.80;;;;;;5139186;27;20027;-92
2021/05/06 16:10:44;;;;;;;43.72;7.68;;;16.90;84.90;;;;;;5126833;27;20016;-92
2021/05/06 16:13:10;;;;;;;36.20;6.72;;;16.80;84.50;;;;;;5117960;27;20027;-91
2021/05/06 16:15:36;;;;;;;41.90;6.90;;;16.70;85.60;;;;;;5136309;27;20404;-92
2021/05/06 16:18:01;;;;;;;36.70;6.63;;;16.70;85.40;;;;;;5126120;27;20082;-92
2021/05/06 16:20:40;;;;;;;38.38;7.53;;;16.90;85.70;;;;;;5122915;28;20027;-90